Terminal Aerodrome Forecast
Issued by NWS Hastings, NE

Home | Current Version | Previous Version | Text Only | Print | Product List | Glossary On
Versions: 1 2 3 4 5 6 7 8 9 10 11 12 13 14 15 16 17 18 19 20 21 22 23 24 25 26
000
FTUS43 KGID 252320
TAFGRI
TAF
KGRI 252320Z 2600/2624 VRB06KT P6SM SCT250
     FM261000 VRB04KT 5SM BR SCT250
     FM261400 05005KT P6SM SCT250
     FM261900 02009KT P6SM SCT030=

USA.gov is the U.S. government's official web portal to all federal, state and local government web resources and services.